sensor_id;sensor_type;location;lat;lon;timestamp;pressure;altitude;pressure_sealevel;temperature;humidity
81997;BME280;71500;50.806;8.774;2024-02-21T00:01:16;100455.15;;;8.80;69.00
81997;BME280;71500;50.806;8.774;2024-02-21T00:03:48;100452.99;;;8.83;69.06
81997;BME280;71500;50.806;8.774;2024-02-21T00:06:19;100451.54;;;8.86;68.86
81997;BME280;71500;50.806;8.774;2024-02-21T00:08:51;100452.88;;;8.87;68.92
81997;BME280;71500;50.806;8.774;2024-02-21T00:11:22;100449.92;;;8.88;68.55
81997;BME280;71500;50.806;8.774;2024-02-21T00:13:54;100445.89;;;8.88;68.80
81997;BME280;71500;50.806;8.774;2024-02-21T00:16:25;100438.50;;;8.88;68.67
81997;BME280;71500;50.806;8.774;2024-02-21T00:18:57;100429.65;;;8.85;68.81
81997;BME280;71500;50.806;8.774;2024-02-21T00:21:29;100426.46;;;8.82;68.74
81997;BME280;71500;50.806;8.774;2024-02-21T00:24:01;100420.11;;;8.80;68.57
81997;BME280;71500;50.806;8.774;2024-02-21T00:26:32;100417.61;;;8.76;68.64
81997;BME280;71500;50.806;8.774;2024-02-21T00:29:03;100410.09;;;8.72;68.99
81997;BME280;71500;50.806;8.774;2024-02-21T00:31:38;100407.33;;;8.68;68.90
81997;BME280;71500;50.806;8.774;2024-02-21T00:34:09;100416.26;;;8.65;68.74
81997;BME280;71500;50.806;8.774;2024-02-21T00:36:41;100416.96;;;8.60;68.92
81997;BME280;71500;50.806;8.774;2024-02-21T00:39:12;100413.97;;;8.55;69.07
81997;BME280;71500;50.806;8.774;2024-02-21T00:41:44;100410.42;;;8.50;69.17
81997;BME280;71500;50.806;8.774;2024-02-21T00:44:15;100406.95;;;8.43;69.25
81997;BME280;71500;50.806;8.774;2024-02-21T00:46:46;100407.50;;;8.46;69.30
81997;BME280;71500;50.806;8.774;2024-02-21T00:49:18;100403.06;;;8.46;69.26
81997;BME280;71500;50.806;8.774;2024-02-21T00:51:49;100404.46;;;8.49;69.34
81997;BME280;71500;50.806;8.774;2024-02-21T00:54:21;100412.48;;;8.51;69.36
81997;BME280;71500;50.806;8.774;2024-02-21T00:56:53;100417.90;;;8.54;69.32
81997;BME280;71500;50.806;8.774;2024-02-21T00:59:24;100419.46;;;8.57;69.48
81997;BME280;71500;50.806;8.774;2024-02-21T01:01:55;100416.50;;;8.59;69.26
81997;BME280;71500;50.806;8.774;2024-02-21T01:04:26;100417.73;;;8.61;69.27
81997;BME280;71500;50.806;8.774;2024-02-21T01:06:58;100418.63;;;8.61;69.35
81997;BME280;71500;50.806;8.774;2024-02-21T01:09:29;100417.17;;;8.62;69.45
81997;BME280;71500;50.806;8.774;2024-02-21T01:12:01;100412.71;;;8.62;69.26
81997;BME280;71500;50.806;8.774;2024-02-21T01:14:32;100411.50;;;8.62;69.41
81997;BME280;71500;50.806;8.774;2024-02-21T01:17:03;100406.61;;;8.61;69.35
81997;BME280;71500;50.806;8.774;2024-02-21T01:19:36;100402.31;;;8.59;69.30
81997;BME280;71500;50.806;8.774;2024-02-21T01:22:08;100394.08;;;8.58;69.43
81997;BME280;71500;50.806;8.774;2024-02-21T01:24:40;100390.77;;;8.55;69.32
81997;BME280;71500;50.806;8.774;2024-02-21T01:27:11;100385.30;;;8.52;69.55
81997;BME280;71500;50.806;8.774;2024-02-21T01:29:42;100378.42;;;8.49;69.57
81997;BME280;71500;50.806;8.774;2024-02-21T01:32:14;100373.65;;;8.47;69.64
81997;BME280;71500;50.806;8.774;2024-02-21T01:34:45;100367.96;;;8.45;69.79
81997;BME280;71500;50.806;8.774;2024-02-21T01:37:16;100367.06;;;8.45;69.50
81997;BME280;71500;50.806;8.774;2024-02-21T01:39:48;100367.21;;;8.45;69.70
81997;BME280;71500;50.806;8.774;2024-02-21T01:42:20;100368.95;;;8.46;69.81
81997;BME280;71500;50.806;8.774;2024-02-21T01:44:52;100363.13;;;8.48;69.76
81997;BME280;71500;50.806;8.774;2024-02-21T01:47:23;100362.48;;;8.50;69.91
81997;BME280;71500;50.806;8.774;2024-02-21T01:49:55;100364.06;;;8.52;69.85
81997;BME280;71500;50.806;8.774;2024-02-21T01:52:26;100361.42;;;8.54;69.86
81997;BME280;71500;50.806;8.774;2024-02-21T01:54:58;100361.61;;;8.54;69.82
81997;BME280;71500;50.806;8.774;2024-02-21T01:57:29;100350.70;;;8.53;69.84
81997;BME280;71500;50.806;8.774;2024-02-21T02:00:01;100344.99;;;8.52;69.80
81997;BME280;71500;50.806;8.774;2024-02-21T02:02:32;100346.63;;;8.51;70.18
81997;BME280;71500;50.806;8.774;2024-02-21T02:05:06;100340.64;;;8.48;70.46
81997;BME280;71500;50.806;8.774;2024-02-21T02:07:38;100327.58;;;8.45;70.59
81997;BME280;71500;50.806;8.774;2024-02-21T02:10:10;100327.46;;;8.42;70.64
81997;BME280;71500;50.806;8.774;2024-02-21T02:12:41;100318.78;;;8.37;70.76
81997;BME280;71500;50.806;8.774;2024-02-21T02:15:13;100318.41;;;8.35;70.59
81997;BME280;71500;50.806;8.774;2024-02-21T02:17:44;100311.67;;;8.35;70.58
81997;BME280;71500;50.806;8.774;2024-02-21T02:20:16;100308.59;;;8.36;70.65
81997;BME280;71500;50.806;8.774;2024-02-21T02:22:48;100303.38;;;8.37;70.79
81997;BME280;71500;50.806;8.774;2024-02-21T02:25:20;100297.77;;;8.36;70.66
81997;BME280;71500;50.806;8.774;2024-02-21T02:27:51;100289.45;;;8.36;70.67
81997;BME280;71500;50.806;8.774;2024-02-21T02:30:22;100286.19;;;8.38;70.70
81997;BME280;71500;50.806;8.774;2024-02-21T02:32:57;100286.14;;;8.38;70.79
81997;BME280;71500;50.806;8.774;2024-02-21T02:35:29;100286.05;;;8.37;70.67
81997;BME280;71500;50.806;8.774;2024-02-21T02:38:00;100283.64;;;8.36;70.70
81997;BME280;71500;50.806;8.774;2024-02-21T02:40:33;100277.02;;;8.35;70.79
81997;BME280;71500;50.806;8.774;2024-02-21T02:43:05;100273.90;;;8.34;70.86
81997;BME280;71500;50.806;8.774;2024-02-21T02:45:36;100265.08;;;8.31;71.01
81997;BME280;71500;50.806;8.774;2024-02-21T02:48:09;100264.13;;;8.29;70.96
81997;BME280;71500;50.806;8.774;2024-02-21T02:50:40;100261.04;;;8.28;71.04
81997;BME280;71500;50.806;8.774;2024-02-21T02:53:11;100261.09;;;8.27;70.95
81997;BME280;71500;50.806;8.774;2024-02-21T02:55:43;100257.77;;;8.29;70.87
81997;BME280;71500;50.806;8.774;2024-02-21T02:58:14;100253.63;;;8.30;70.91
81997;BME280;71500;50.806;8.774;2024-02-21T03:00:46;100247.73;;;8.31;70.90
81997;BME280;71500;50.806;8.774;2024-02-21T03:03:17;100239.27;;;8.33;70.99
81997;BME280;71500;50.806;8.774;2024-02-21T03:05:48;100240.41;;;8.37;71.03
81997;BME280;71500;50.806;8.774;2024-02-21T03:08:20;100241.95;;;8.40;71.03
81997;BME280;71500;50.806;8.774;2024-02-21T03:10:51;100243.60;;;8.42;70.93
81997;BME280;71500;50.806;8.774;2024-02-21T03:13:23;100242.09;;;8.43;70.85
81997;BME280;71500;50.806;8.774;2024-02-21T03:15:55;100235.23;;;8.42;70.91
81997;BME280;71500;50.806;8.774;2024-02-21T03:18:27;100234.58;;;8.42;71.04
81997;BME280;71500;50.806;8.774;2024-02-21T03:20:58;100229.53;;;8.41;70.91
81997;BME280;71500;50.806;8.774;2024-02-21T03:23:30;100224.70;;;8.39;70.90
81997;BME280;71500;50.806;8.774;2024-02-21T03:26:01;100222.35;;;8.35;70.89
81997;BME280;71500;50.806;8.774;2024-02-21T03:28:33;100219.27;;;8.31;70.97
81997;BME280;71500;50.806;8.774;2024-02-21T03:31:04;100212.27;;;8.27;70.97
81997;BME280;71500;50.806;8.774;2024-02-21T03:33:36;100205.82;;;8.24;71.00
81997;BME280;71500;50.806;8.774;2024-02-21T03:36:14;100199.31;;;8.20;70.98
81997;BME280;71500;50.806;8.774;2024-02-21T03:38:45;100192.82;;;8.17;71.12
81997;BME280;71500;50.806;8.774;2024-02-21T03:41:17;100191.40;;;8.20;71.03
81997;BME280;71500;50.806;8.774;2024-02-21T03:43:52;100188.56;;;8.20;71.03
81997;BME280;71500;50.806;8.774;2024-02-21T03:46:25;100192.16;;;8.22;71.00
81997;BME280;71500;50.806;8.774;2024-02-21T03:48:56;100203.70;;;8.23;70.83
81997;BME280;71500;50.806;8.774;2024-02-21T03:51:27;100205.20;;;8.25;71.03
81997;BME280;71500;50.806;8.774;2024-02-21T03:53:59;100205.17;;;8.27;70.94
81997;BME280;71500;50.806;8.774;2024-02-21T03:56:30;100211.56;;;8.27;70.90
81997;BME280;71500;50.806;8.774;2024-02-21T03:59:01;100218.34;;;8.29;70.83
81997;BME280;71500;50.806;8.774;2024-02-21T04:01:33;100219.02;;;8.29;70.72
81997;BME280;71500;50.806;8.774;2024-02-21T04:04:05;100226.75;;;8.28;70.83
81997;BME280;71500;50.806;8.774;2024-02-21T04:06:37;100230.86;;;8.27;70.69
81997;BME280;71500;50.806;8.774;2024-02-21T04:09:08;100224.24;;;8.26;70.62
81997;BME280;71500;50.806;8.774;2024-02-21T04:11:39;100222.98;;;8.23;70.64
81997;BME280;71500;50.806;8.774;2024-02-21T04:14:11;100224.73;;;8.21;70.53
81997;BME280;71500;50.806;8.774;2024-02-21T04:16:42;100229.73;;;8.18;70.57
81997;BME280;71500;50.806;8.774;2024-02-21T04:19:14;100230.09;;;8.16;70.44
81997;BME280;71500;50.806;8.774;2024-02-21T04:21:45;100225.29;;;8.16;70.46
81997;BME280;71500;50.806;8.774;2024-02-21T04:24:16;100215.52;;;8.16;70.43
81997;BME280;71500;50.806;8.774;2024-02-21T04:26:48;100207.35;;;8.17;70.52
81997;BME280;71500;50.806;8.774;2024-02-21T04:29:19;100204.71;;;8.17;70.45
81997;BME280;71500;50.806;8.774;2024-02-21T04:31:50;100192.34;;;8.17;70.38
81997;BME280;71500;50.806;8.774;2024-02-21T04:34:22;100184.26;;;8.16;70.37
81997;BME280;71500;50.806;8.774;2024-02-21T04:36:53;100180.23;;;8.15;70.37
81997;BME280;71500;50.806;8.774;2024-02-21T04:39:25;100171.02;;;8.13;70.47
81997;BME280;71500;50.806;8.774;2024-02-21T04:41:56;100166.30;;;8.12;70.44
81997;BME280;71500;50.806;8.774;2024-02-21T04:44:27;100174.89;;;8.11;70.43
81997;BME280;71500;50.806;8.774;2024-02-21T04:46:59;100176.92;;;8.09;70.45
81997;BME280;71500;50.806;8.774;2024-02-21T04:49:31;100167.83;;;8.08;70.55
81997;BME280;71500;50.806;8.774;2024-02-21T04:52:02;100161.48;;;8.06;70.63
81997;BME280;71500;50.806;8.774;2024-02-21T04:54:34;100160.73;;;8.04;70.77
81997;BME280;71500;50.806;8.774;2024-02-21T04:57:06;100154.55;;;8.06;70.77
81997;BME280;71500;50.806;8.774;2024-02-21T04:59:40;100156.52;;;8.08;70.65
81997;BME280;71500;50.806;8.774;2024-02-21T05:02:11;100154.66;;;8.09;70.65
81997;BME280;71500;50.806;8.774;2024-02-21T05:04:45;100154.17;;;8.09;70.63
81997;BME280;71500;50.806;8.774;2024-02-21T05:07:16;100159.59;;;8.10;70.80
81997;BME280;71500;50.806;8.774;2024-02-21T05:09:49;100159.30;;;8.11;70.76
81997;BME280;71500;50.806;8.774;2024-02-21T05:12:20;100154.59;;;8.13;70.78
81997;BME280;71500;50.806;8.774;2024-02-21T05:14:52;100146.80;;;8.13;70.76
81997;BME280;71500;50.806;8.774;2024-02-21T05:17:23;100153.53;;;8.13;70.60
81997;BME280;71500;50.806;8.774;2024-02-21T05:19:54;100159.21;;;8.10;70.55
81997;BME280;71500;50.806;8.774;2024-02-21T05:22:26;100162.94;;;8.08;70.79
81997;BME280;71500;50.806;8.774;2024-02-21T05:24:57;100171.04;;;8.05;70.74
81997;BME280;71500;50.806;8.774;2024-02-21T05:27:28;100175.48;;;8.03;70.83
81997;BME280;71500;50.806;8.774;2024-02-21T05:30:00;100177.56;;;8.01;70.72
81997;BME280;71500;50.806;8.774;2024-02-21T05:32:31;100182.54;;;7.98;70.97
81997;BME280;71500;50.806;8.774;2024-02-21T05:35:03;100181.45;;;7.96;70.88
81997;BME280;71500;50.806;8.774;2024-02-21T05:37:35;100181.83;;;7.98;70.89
81997;BME280;71500;50.806;8.774;2024-02-21T05:40:08;100181.94;;;7.99;70.93
81997;BME280;71500;50.806;8.774;2024-02-21T05:42:40;100188.11;;;8.02;70.87
81997;BME280;71500;50.806;8.774;2024-02-21T05:45:12;100185.26;;;8.05;71.00
81997;BME280;71500;50.806;8.774;2024-02-21T05:47:45;100182.73;;;8.08;71.02
81997;BME280;71500;50.806;8.774;2024-02-21T05:50:17;100178.11;;;8.10;71.00
81997;BME280;71500;50.806;8.774;2024-02-21T05:52:50;100180.25;;;8.12;70.91
81997;BME280;71500;50.806;8.774;2024-02-21T05:55:22;100183.52;;;8.14;70.88
81997;BME280;71500;50.806;8.774;2024-02-21T05:57:55;100181.73;;;8.14;70.95
81997;BME280;71500;50.806;8.774;2024-02-21T06:00:27;100186.54;;;8.14;70.79
81997;BME280;71500;50.806;8.774;2024-02-21T06:02:58;100179.67;;;8.13;70.82
81997;BME280;71500;50.806;8.774;2024-02-21T06:05:30;100178.21;;;8.11;70.89
81997;BME280;71500;50.806;8.774;2024-02-21T06:08:02;100175.41;;;8.11;70.80
81997;BME280;71500;50.806;8.774;2024-02-21T06:10:34;100166.72;;;8.09;70.82
81997;BME280;71500;50.806;8.774;2024-02-21T06:13:05;100155.70;;;8.08;70.88
81997;BME280;71500;50.806;8.774;2024-02-21T06:15:36;100146.81;;;8.06;70.86
81997;BME280;71500;50.806;8.774;2024-02-21T06:18:08;100141.83;;;8.04;70.83
81997;BME280;71500;50.806;8.774;2024-02-21T06:20:39;100138.41;;;8.02;70.96
81997;BME280;71500;50.806;8.774;2024-02-21T06:23:12;100135.02;;;8.05;70.84
81997;BME280;71500;50.806;8.774;2024-02-21T06:25:43;100132.38;;;8.07;70.84
81997;BME280;71500;50.806;8.774;2024-02-21T06:28:15;100139.75;;;8.10;70.88
81997;BME280;71500;50.806;8.774;2024-02-21T06:30:46;100143.02;;;8.14;70.85
81997;BME280;71500;50.806;8.774;2024-02-21T06:33:18;100140.27;;;8.15;70.92
81997;BME280;71500;50.806;8.774;2024-02-21T06:35:53;100134.07;;;8.18;70.90
81997;BME280;71500;50.806;8.774;2024-02-21T06:38:25;100141.83;;;8.20;70.88
81997;BME280;71500;50.806;8.774;2024-02-21T06:40:56;100148.21;;;8.22;70.80
81997;BME280;71500;50.806;8.774;2024-02-21T06:43:30;100154.86;;;8.23;70.77
81997;BME280;71500;50.806;8.774;2024-02-21T06:46:02;100153.97;;;8.23;70.77
81997;BME280;71500;50.806;8.774;2024-02-21T06:48:33;100149.20;;;8.24;70.78
81997;BME280;71500;50.806;8.774;2024-02-21T06:51:05;100146.16;;;8.24;70.81
81997;BME280;71500;50.806;8.774;2024-02-21T06:53:37;100146.55;;;8.24;70.87
81997;BME280;71500;50.806;8.774;2024-02-21T06:56:08;100144.50;;;8.22;70.82
81997;BME280;71500;50.806;8.774;2024-02-21T06:58:40;100146.85;;;8.21;70.80
81997;BME280;71500;50.806;8.774;2024-02-21T07:01:11;100141.76;;;8.19;70.72
81997;BME280;71500;50.806;8.774;2024-02-21T07:03:42;100141.67;;;8.18;70.85
81997;BME280;71500;50.806;8.774;2024-02-21T07:06:14;100140.67;;;8.17;70.84
81997;BME280;71500;50.806;8.774;2024-02-21T07:08:45;100134.16;;;8.14;70.84
81997;BME280;71500;50.806;8.774;2024-02-21T07:11:17;100135.23;;;8.16;70.92
81997;BME280;71500;50.806;8.774;2024-02-21T07:13:48;100134.54;;;8.18;70.79
81997;BME280;71500;50.806;8.774;2024-02-21T07:16:19;100138.75;;;8.21;70.80
81997;BME280;71500;50.806;8.774;2024-02-21T07:18:51;100132.04;;;8.24;70.74
81997;BME280;71500;50.806;8.774;2024-02-21T07:21:22;100128.70;;;8.26;70.61
81997;BME280;71500;50.806;8.774;2024-02-21T07:23:54;100119.02;;;8.28;70.66
81997;BME280;71500;50.806;8.774;2024-02-21T07:26:25;100113.87;;;8.30;70.76
81997;BME280;71500;50.806;8.774;2024-02-21T07:28:56;100113.08;;;8.31;70.75
81997;BME280;71500;50.806;8.774;2024-02-21T07:31:28;100111.68;;;8.33;70.61
81997;BME280;71500;50.806;8.774;2024-02-21T07:33:59;100109.83;;;8.34;70.49
81997;BME280;71500;50.806;8.774;2024-02-21T07:36:31;100117.27;;;8.34;70.35
81997;BME280;71500;50.806;8.774;2024-02-21T07:39:02;100113.13;;;8.33;70.34
81997;BME280;71500;50.806;8.774;2024-02-21T07:41:34;100104.94;;;8.31;70.25
81997;BME280;71500;50.806;8.774;2024-02-21T07:44:06;100104.11;;;8.28;70.25
81997;BME280;71500;50.806;8.774;2024-02-21T07:46:37;100100.48;;;8.25;70.24
81997;BME280;71500;50.806;8.774;2024-02-21T07:49:09;100105.69;;;8.21;70.22
81997;BME280;71500;50.806;8.774;2024-02-21T07:51:40;100110.98;;;8.19;70.17
81997;BME280;71500;50.806;8.774;2024-02-21T07:54:12;100107.64;;;8.19;70.13
81997;BME280;71500;50.806;8.774;2024-02-21T07:56:46;100102.71;;;8.21;70.10
81997;BME280;71500;50.806;8.774;2024-02-21T07:59:18;100105.13;;;8.21;70.00
81997;BME280;71500;50.806;8.774;2024-02-21T08:01:49;100103.70;;;8.21;70.05
81997;BME280;71500;50.806;8.774;2024-02-21T08:04:21;100101.02;;;8.22;70.04
81997;BME280;71500;50.806;8.774;2024-02-21T08:06:53;100098.06;;;8.24;70.14
81997;BME280;71500;50.806;8.774;2024-02-21T08:09:25;100095.25;;;8.26;69.99
81997;BME280;71500;50.806;8.774;2024-02-21T08:11:57;100093.02;;;8.28;70.09
81997;BME280;71500;50.806;8.774;2024-02-21T08:14:28;100094.23;;;8.30;69.92
81997;BME280;71500;50.806;8.774;2024-02-21T08:17:00;100094.98;;;8.32;69.76
81997;BME280;71500;50.806;8.774;2024-02-21T08:19:32;100091.14;;;8.34;69.75
81997;BME280;71500;50.806;8.774;2024-02-21T08:22:04;100086.86;;;8.34;69.66
81997;BME280;71500;50.806;8.774;2024-02-21T08:24:36;100079.52;;;8.33;69.63
81997;BME280;71500;50.806;8.774;2024-02-21T08:27:08;100075.61;;;8.31;69.43
81997;BME280;71500;50.806;8.774;2024-02-21T08:29:39;100071.16;;;8.29;69.67
81997;BME280;71500;50.806;8.774;2024-02-21T08:32:10;100069.59;;;8.29;69.68
81997;BME280;71500;50.806;8.774;2024-02-21T08:34:42;100066.21;;;8.29;69.52
81997;BME280;71500;50.806;8.774;2024-02-21T08:37:13;100062.73;;;8.33;69.38
81997;BME280;71500;50.806;8.774;2024-02-21T08:39:45;100059.06;;;8.37;69.49
81997;BME280;71500;50.806;8.774;2024-02-21T08:42:18;100058.58;;;8.44;69.39
81997;BME280;71500;50.806;8.774;2024-02-21T08:44:49;100047.81;;;8.48;69.16
81997;BME280;71500;50.806;8.774;2024-02-21T08:47:20;100039.88;;;8.52;69.06
81997;BME280;71500;50.806;8.774;2024-02-21T08:49:52;100034.38;;;8.56;68.94
81997;BME280;71500;50.806;8.774;2024-02-21T08:52:23;100030.08;;;8.59;68.46
81997;BME280;71500;50.806;8.774;2024-02-21T08:54:55;100029.52;;;8.62;68.42
81997;BME280;71500;50.806;8.774;2024-02-21T08:57:27;100026.98;;;8.63;68.51
81997;BME280;71500;50.806;8.774;2024-02-21T08:59:58;100021.88;;;8.65;68.45
81997;BME280;71500;50.806;8.774;2024-02-21T09:02:30;100022.11;;;8.64;68.02
81997;BME280;71500;50.806;8.774;2024-02-21T09:05:02;100016.29;;;8.61;68.03
81997;BME280;71500;50.806;8.774;2024-02-21T09:07:35;100012.63;;;8.59;68.08
81997;BME280;71500;50.806;8.774;2024-02-21T09:10:08;100013.58;;;8.55;67.89
81997;BME280;71500;50.806;8.774;2024-02-21T09:12:40;100010.53;;;8.52;67.88
81997;BME280;71500;50.806;8.774;2024-02-21T09:15:11;100008.25;;;8.49;68.08
81997;BME280;71500;50.806;8.774;2024-02-21T09:17:43;99999.14;;;8.48;67.80
81997;BME280;71500;50.806;8.774;2024-02-21T09:20:14;99997.66;;;8.46;67.84
81997;BME280;71500;50.806;8.774;2024-02-21T09:22:47;99995.83;;;8.47;68.19
81997;BME280;71500;50.806;8.774;2024-02-21T09:25:18;99999.73;;;8.49;67.87
81997;BME280;71500;50.806;8.774;2024-02-21T09:27:50;99997.50;;;8.51;67.94
81997;BME280;71500;50.806;8.774;2024-02-21T09:30:22;99997.16;;;8.51;67.76
81997;BME280;71500;50.806;8.774;2024-02-21T09:32:53;99997.64;;;8.51;67.75
81997;BME280;71500;50.806;8.774;2024-02-21T09:35:25;99996.68;;;8.52;67.72
81997;BME280;71500;50.806;8.774;2024-02-21T09:37:57;99989.17;;;8.55;67.67
81997;BME280;71500;50.806;8.774;2024-02-21T09:40:30;99985.06;;;8.58;67.20
81997;BME280;71500;50.806;8.774;2024-02-21T09:43:04;99988.62;;;8.64;67.08
81997;BME280;71500;50.806;8.774;2024-02-21T09:45:38;99987.36;;;8.69;66.86
81997;BME280;71500;50.806;8.774;2024-02-21T09:48:22;99990.42;;;8.73;66.74
81997;BME280;71500;50.806;8.774;2024-02-21T09:50:58;99987.08;;;8.78;66.80
81997;BME280;71500;50.806;8.774;2024-02-21T09:53:31;99992.07;;;8.81;66.55
81997;BME280;71500;50.806;8.774;2024-02-21T09:56:05;99985.27;;;8.85;66.34
81997;BME280;71500;50.806;8.774;2024-02-21T09:58:43;99980.36;;;8.88;66.13
81997;BME280;71500;50.806;8.774;2024-02-21T10:01:14;99978.44;;;8.93;66.12
81997;BME280;71500;50.806;8.774;2024-02-21T10:04:04;99983.19;;;8.97;65.57
81997;BME280;71500;50.806;8.774;2024-02-21T10:06:37;99983.05;;;8.99;65.44
81997;BME280;71500;50.806;8.774;2024-02-21T10:09:19;99976.50;;;9.03;65.34
81997;BME280;71500;50.806;8.774;2024-02-21T10:11:51;99974.45;;;9.09;65.14
81997;BME280;71500;50.806;8.774;2024-02-21T10:14:22;99968.04;;;9.14;65.12
81997;BME280;71500;50.806;8.774;2024-02-21T10:16:59;99957.55;;;9.19;64.93
81997;BME280;71500;50.806;8.774;2024-02-21T10:19:30;99956.98;;;9.23;64.62
81997;BME280;71500;50.806;8.774;2024-02-21T10:22:04;99952.19;;;9.26;64.20
81997;BME280;71500;50.806;8.774;2024-02-21T10:24:38;99946.17;;;9.28;63.97
81997;BME280;71500;50.806;8.774;2024-02-21T10:27:11;99945.00;;;9.29;63.93
81997;BME280;71500;50.806;8.774;2024-02-21T10:29:43;99942.55;;;9.31;63.52
81997;BME280;71500;50.806;8.774;2024-02-21T10:32:19;99935.74;;;9.31;63.69
81997;BME280;71500;50.806;8.774;2024-02-21T10:35:02;99932.14;;;9.33;63.54
81997;BME280;71500;50.806;8.774;2024-02-21T10:37:34;99929.60;;;9.33;63.30
81997;BME280;71500;50.806;8.774;2024-02-21T10:40:08;99931.61;;;9.35;63.10
81997;BME280;71500;50.806;8.774;2024-02-21T10:42:40;99929.05;;;9.35;62.95
81997;BME280;71500;50.806;8.774;2024-02-21T10:45:11;99926.40;;;9.38;62.94
81997;BME280;71500;50.806;8.774;2024-02-21T10:47:48;99922.53;;;9.39;63.05
81997;BME280;71500;50.806;8.774;2024-02-21T10:50:26;99920.23;;;9.41;62.90
81997;BME280;71500;50.806;8.774;2024-02-21T10:53:07;99914.69;;;9.44;62.81
81997;BME280;71500;50.806;8.774;2024-02-21T10:55:49;99911.02;;;9.48;62.75
81997;BME280;71500;50.806;8.774;2024-02-21T10:58:22;99909.83;;;9.52;62.63
81997;BME280;71500;50.806;8.774;2024-02-21T11:00:56;99914.66;;;9.53;62.30
81997;BME280;71500;50.806;8.774;2024-02-21T11:03:27;99913.06;;;9.53;62.68
81997;BME280;71500;50.806;8.774;2024-02-21T11:06:00;99909.53;;;9.56;62.83
81997;BME280;71500;50.806;8.774;2024-02-21T11:08:32;99907.20;;;9.58;62.59
81997;BME280;71500;50.806;8.774;2024-02-21T11:11:05;99899.84;;;9.59;62.60
81997;BME280;71500;50.806;8.774;2024-02-21T11:13:41;99901.34;;;9.60;62.37
81997;BME280;71500;50.806;8.774;2024-02-21T11:16:23;99896.77;;;9.60;62.41
81997;BME280;71500;50.806;8.774;2024-02-21T11:19:05;99893.77;;;9.59;62.13
81997;BME280;71500;50.806;8.774;2024-02-21T11:21:37;99886.59;;;9.56;62.12
81997;BME280;71500;50.806;8.774;2024-02-21T11:24:09;99880.16;;;9.55;62.13
81997;BME280;71500;50.806;8.774;2024-02-21T11:26:41;99874.23;;;9.56;62.14
81997;BME280;71500;50.806;8.774;2024-02-21T11:29:13;99869.80;;;9.58;62.15
81997;BME280;71500;50.806;8.774;2024-02-21T11:31:54;99861.49;;;9.62;61.82
81997;BME280;71500;50.806;8.774;2024-02-21T11:34:26;99859.65;;;9.65;61.71
81997;BME280;71500;50.806;8.774;2024-02-21T11:36:57;99852.25;;;9.66;61.63
81997;BME280;71500;50.806;8.774;2024-02-21T11:39:29;99834.59;;;9.68;61.53
81997;BME280;71500;50.806;8.774;2024-02-21T11:42:05;99831.92;;;9.70;61.47
81997;BME280;71500;50.806;8.774;2024-02-21T11:44:38;99825.19;;;9.72;61.48
81997;BME280;71500;50.806;8.774;2024-02-21T11:47:10;99812.57;;;9.72;61.21
81997;BME280;71500;50.806;8.774;2024-02-21T11:49:45;99806.44;;;9.73;61.43
81997;BME280;71500;50.806;8.774;2024-02-21T11:52:17;99797.01;;;9.76;61.53
81997;BME280;71500;50.806;8.774;2024-02-21T11:54:50;99791.73;;;9.79;61.45
81997;BME280;71500;50.806;8.774;2024-02-21T11:57:22;99785.50;;;9.82;61.29
81997;BME280;71500;50.806;8.774;2024-02-21T11:59:54;99784.48;;;9.85;61.00
81997;BME280;71500;50.806;8.774;2024-02-21T12:02:29;99772.27;;;9.85;60.83
81997;BME280;71500;50.806;8.774;2024-02-21T12:05:00;99770.52;;;9.85;60.71
81997;BME280;71500;50.806;8.774;2024-02-21T12:07:33;99766.77;;;9.83;60.80
81997;BME280;71500;50.806;8.774;2024-02-21T12:10:08;99754.48;;;9.82;60.87
81997;BME280;71500;50.806;8.774;2024-02-21T12:12:41;99754.46;;;9.80;60.64
81997;BME280;71500;50.806;8.774;2024-02-21T12:15:12;99752.95;;;9.79;60.95
81997;BME280;71500;50.806;8.774;2024-02-21T12:17:43;99746.45;;;9.78;61.03
81997;BME280;71500;50.806;8.774;2024-02-21T12:20:16;99745.81;;;9.79;61.12
81997;BME280;71500;50.806;8.774;2024-02-21T12:22:50;99740.14;;;9.81;61.00
81997;BME280;71500;50.806;8.774;2024-02-21T12:25:23;99731.06;;;9.84;60.95
81997;BME280;71500;50.806;8.774;2024-02-21T12:27:56;99727.46;;;9.86;61.09
81997;BME280;71500;50.806;8.774;2024-02-21T12:30:29;99721.81;;;9.90;61.10
81997;BME280;71500;50.806;8.774;2024-02-21T12:33:03;99719.10;;;9.93;60.60
81997;BME280;71500;50.806;8.774;2024-02-21T12:35:35;99709.38;;;9.94;60.65
81997;BME280;71500;50.806;8.774;2024-02-21T12:38:06;99709.30;;;9.95;60.54
81997;BME280;71500;50.806;8.774;2024-02-21T12:40:37;99698.59;;;9.96;60.46
81997;BME280;71500;50.806;8.774;2024-02-21T12:43:09;99689.52;;;9.98;60.54
81997;BME280;71500;50.806;8.774;2024-02-21T12:45:41;99703.16;;;10.02;60.21
81997;BME280;71500;50.806;8.774;2024-02-21T12:48:13;99705.61;;;10.05;60.26
81997;BME280;71500;50.806;8.774;2024-02-21T12:50:49;99701.64;;;10.08;60.60
81997;BME280;71500;50.806;8.774;2024-02-21T12:53:22;99708.98;;;10.13;60.44
81997;BME280;71500;50.806;8.774;2024-02-21T12:56:02;99700.70;;;10.16;60.14
81997;BME280;71500;50.806;8.774;2024-02-21T12:58:35;99697.83;;;10.19;59.84
81997;BME280;71500;50.806;8.774;2024-02-21T13:01:06;99680.66;;;10.20;59.42
81997;BME280;71500;50.806;8.774;2024-02-21T13:03:38;99676.21;;;10.20;59.01
81997;BME280;71500;50.806;8.774;2024-02-21T13:06:10;99673.35;;;10.19;59.05
81997;BME280;71500;50.806;8.774;2024-02-21T13:08:42;99666.64;;;10.18;59.19
81997;BME280;71500;50.806;8.774;2024-02-21T13:11:14;99660.30;;;10.18;59.13
81997;BME280;71500;50.806;8.774;2024-02-21T13:13:46;99664.98;;;10.19;59.25
81997;BME280;71500;50.806;8.774;2024-02-21T13:16:18;99656.45;;;10.19;59.22
81997;BME280;71500;50.806;8.774;2024-02-21T13:18:50;99657.60;;;10.20;59.14
81997;BME280;71500;50.806;8.774;2024-02-21T13:21:21;99649.88;;;10.21;59.25
81997;BME280;71500;50.806;8.774;2024-02-21T13:23:53;99631.91;;;10.22;59.23
81997;BME280;71500;50.806;8.774;2024-02-21T13:26:24;99620.71;;;10.22;59.39
81997;BME280;71500;50.806;8.774;2024-02-21T13:28:56;99617.61;;;10.25;59.53